Pagina principale
METAR-TAF:

METAR-TAF

Aeroporti :

Rarotonga, Isole Cook

latitudine: 21-12S, longitudine: 159-49W, altezza: 7 m

Osservazione

Il bollettino è stato emesso 57 minuti fa, alle 00:00 UTC
Vento 6 kt da nord-ovest
Temperature 28°C
Umidità 62%
Pressione 1013 hPa
Visibilità 10 km o più
Poco nuvoloso ad un'altezza di 2300 ft

METAR: NCRG 160000Z 32006KT 9999 FEW023 28/20 Q1013

Ora: 14:57 (00:57 UTC)

Previsione

Il bollettino è stato emesso 1 ora e 56 minuti fa, alle 23:01 UTC
Previsione valida dal 16 alle 00 UTC al 16 alle 24 UTC
Vento 7 kt da sud/sud-est
Visibilità 10 km o più
Nubi sparse ad un'altezza di 1800 ft

TAF: NCRG 152301Z 1600/1624 16007KT 9999 SCT018

Osservazioni e previsioni meteorologiche di più di 4000 aeroporti (messaggi METAR e TAF).

Le stazioni disponibili sono rappresentate dai dischi gialli e rossi sulla carta.

Puntare il mouse per vedere il nome della stazione.

Clicca sopra per visualizzare le osservazioni e previsioni meteorologiche.

Per cambiare la mappa : fare clic sui pulsanti verdi con una croce nera per ingrandire, il pulsante verde con un trattino per diminuire, o sulla freccia verde per le mappe adiacenti.


METAR-TAF: